Terminal Aerodrome Forecast
Issued by NWS

Home | Current Version | Previous Version | Text Only | Print | Product List | Glossary On
Versions: 1 2 3 4 5 6 7 8 9 10 11 12 13 14 15 16
000
FTUS46 KSGX 271100
TAFTRM
TAF
KTRM 271129Z 2712/2812 VRB04KT 6SM BR SCT025 OVC035
      TEMPO 2712/2716 5SM BR BKN025
     FM271800 15005KT P6SM SCT035 SCT100
     FM280300 32005KT P6SM SCT250=

USA.gov is the U.S. government's official web portal to all federal, state and local government web resources and services.